Time;durP1;ratioP1;P1;durP2;ratioP2;P2;SDS_P1;SDS_P2;PMS_P1;PMS_P2;Temp;Humidity;BMP_temperature;BMP_pressure;BME280_temperature;BME280_humidity;BME280_pressure;Samples;Min_cycle;Max_cycle;Signal;HPM_P1;HPM_P2
2021/06/06 00:00:25;;;;;;;8.88;6.60;;;;;;;21.01;50.24;99549.35;1764353;78;20989;-65
2021/06/06 00:02:54;;;;;;;9.03;6.17;;;;;;;20.99;50.29;99551.48;1786265;78;21496;-65
2021/06/06 00:05:22;;;;;;;9.68;6.03;;;;;;;20.95;50.35;99547.62;1781000;80;21129;-65
2021/06/06 00:07:49;;;;;;;9.70;6.08;;;;;;;20.91;50.41;99545.93;1777734;80;21009;-66
2021/06/06 00:10:16;;;;;;;10.78;6.22;;;;;;;20.89;50.44;99546.70;1788813;78;21059;-67
2021/06/06 00:12:42;;;;;;;8.38;6.25;;;;;;;20.86;50.49;99551.76;1804276;78;21016;-66
2021/06/06 00:15:13;;;;;;;17.25;7.50;;;;;;;20.83;50.48;99550.91;1795513;78;21023;-67
2021/06/06 00:17:39;;;;;;;10.45;6.97;;;;;;;20.79;50.47;99550.56;1788434;79;21100;-65
2021/06/06 00:20:10;;;;;;;10.82;6.33;;;;;;;20.77;50.44;99552.14;1789277;78;21024;-67
2021/06/06 00:22:37;;;;;;;11.45;7.15;;;;;;;20.74;50.52;99552.61;1779575;80;21010;-68
2021/06/06 00:25:07;;;;;;;9.50;6.35;;;;;;;20.70;50.58;99543.36;1781664;78;21049;-65
2021/06/06 00:27:33;;;;;;;21.50;15.58;;;;;;;20.67;50.66;99545.71;1775322;79;21043;-66
2021/06/06 00:30:01;;;;;;;32.80;23.75;;;;;;;20.64;50.68;99539.46;1771156;80;21032;-64
2021/06/06 00:32:27;;;;;;;22.22;15.13;;;;;;;20.61;50.67;99541.58;1787058;78;21041;-66
2021/06/06 00:34:55;;;;;;;17.27;10.68;;;;;;;20.58;50.61;99537.97;1786883;78;21028;-65
2021/06/06 00:37:21;;;;;;;12.98;7.92;;;;;;;20.56;50.57;99540.09;1789495;78;21551;-67
2021/06/06 00:39:48;;;;;;;13.13;7.97;;;;;;;20.52;50.49;99538.92;1743643;80;21605;-65
2021/06/06 00:42:18;;;;;;;12.35;7.92;;;;;;;20.50;50.57;99541.58;1770407;78;21151;-65
2021/06/06 00:44:46;;;;;;;13.32;7.83;;;;;;;20.49;50.61;99542.09;1788411;78;21087;-65
2021/06/06 00:47:13;;;;;;;12.75;7.33;;;;;;;20.47;50.54;99538.00;1760198;79;21100;-66
2021/06/06 00:49:42;;;;;;;10.63;7.05;;;;;;;20.45;50.53;99534.72;1766506;78;21096;-66
2021/06/06 00:52:09;;;;;;;10.78;6.33;;;;;;;20.41;50.48;99534.38;1784940;79;20997;-67
2021/06/06 00:54:47;;;;;;;10.68;7.62;;;;;;;20.39;50.52;99531.09;1749677;79;21908;-66
2021/06/06 00:57:19;;;;;;;7.20;6.30;;;;;;;20.37;50.57;99529.16;1789844;79;21013;-66
2021/06/06 00:59:52;;;;;;;8.70;6.67;;;;;;;20.34;50.64;99532.32;1785170;78;22048;-66
2021/06/06 01:02:18;;;;;;;8.75;6.33;;;;;;;20.31;50.79;99529.58;1786742;78;21002;-66
2021/06/06 01:04:45;;;;;;;13.60;6.40;;;;;;;20.27;50.89;99529.77;1767213;78;21495;-66
2021/06/06 01:07:12;;;;;;;11.00;5.87;;;;;;;20.26;50.94;99532.69;1778136;79;21147;-65
2021/06/06 01:09:42;;;;;;;7.70;6.22;;;;;;;20.23;51.03;99525.37;1783385;78;21053;-66
2021/06/06 01:12:24;;;;;;;6.12;5.40;;;;;;;20.21;51.04;99519.39;1781093;79;21037;-68
2021/06/06 01:15:00;;;;;;;;;;;;;;;20.18;51.09;99525.78;1787532;79;21030;-66
2021/06/06 01:17:45;;;;;;;9.40;5.65;;;;;;;20.14;51.18;99519.23;1783582;79;20171;-67
2021/06/06 01:20:27;;;;;;;;;;;;;;;20.05;51.37;99520.13;1791614;78;21858;-66
2021/06/06 01:23:02;;;;;;;8.08;6.33;;;;;;;20.03;51.45;99520.89;1790785;78;20454;-67
2021/06/06 01:25:37;;;;;;;8.65;5.67;;;;;;;19.94;51.63;99516.91;1782741;78;21536;-67
2021/06/06 01:28:23;;;;;;;10.28;5.78;;;;;;;19.92;51.69;99519.02;1754619;80;21536;-66
2021/06/06 01:30:56;;;;;;;10.95;7.30;;;;;;;19.92;51.78;99520.37;1779937;79;22172;-66
2021/06/06 01:33:47;;;;;;;10.45;6.72;;;;;;;19.89;51.80;99518.94;1783073;78;21121;-65
2021/06/06 01:36:21;;;;;;;10.23;7.35;;;;;;;19.87;51.87;99517.01;1772650;80;21108;-66
2021/06/06 01:38:58;;;;;;;12.65;6.47;;;;;;;19.84;51.95;99521.54;1781946;78;20985;-67
2021/06/06 01:41:35;;;;;;;14.23;6.35;;;;;;;19.82;52.04;99527.70;1782182;78;21060;-65
2021/06/06 01:44:07;;;;;;;9.78;6.40;;;;;;;19.80;52.14;99527.92;1785691;78;21021;-64
2021/06/06 01:46:41;;;;;;;11.15;6.55;;;;;;;19.76;52.30;99529.45;1779151;79;21086;-63
2021/06/06 01:49:09;;;;;;;9.70;5.67;;;;;;;19.74;52.39;99528.86;1786512;78;21505;-65
2021/06/06 01:51:40;;;;;;;10.28;6.53;;;;;;;19.74;52.40;99530.71;1783096;80;21017;-65
2021/06/06 01:54:09;;;;;;;10.63;5.95;;;;;;;19.73;52.38;99533.12;1786252;79;21033;-65
2021/06/06 01:56:38;;;;;;;8.33;5.80;;;;;;;19.72;52.40;99530.13;1793074;78;21010;-65
2021/06/06 01:59:24;;;;;;;9.33;6.03;;;;;;;19.72;52.40;99530.97;1808907;78;21141;-67
2021/06/06 02:01:51;;;;;;;7.03;5.92;;;;;;;19.72;52.43;99530.13;1771510;79;21500;-67
2021/06/06 02:04:20;;;;;;;9.73;5.83;;;;;;;19.72;52.38;99528.27;1766115;78;21008;-65
2021/06/06 02:06:58;;;;;;;10.75;5.05;;;;;;;19.73;52.27;99531.78;1755862;78;21020;-65
2021/06/06 02:09:30;;;;;;;12.07;6.03;;;;;;;19.73;52.26;99529.09;1774923;78;21057;-66
2021/06/06 02:12:06;;;;;;;9.43;5.58;;;;;;;19.72;52.30;99533.66;1763287;80;21064;-65
2021/06/06 02:14:38;;;;;;;7.12;5.50;;;;;;;19.72;52.29;99534.17;1686931;83;21036;-67
2021/06/06 02:17:29;;;;;;;7.50;5.03;;;;;;;19.72;52.29;99533.66;1714757;82;21641;-66
2021/06/06 02:19:59;;;;;;;9.78;5.42;;;;;;;19.72;52.32;99526.09;1719979;82;21519;-66
2021/06/06 02:22:30;;;;;;;9.45;5.83;;;;;;;19.72;52.33;99531.47;1718744;81;21006;-66
2021/06/06 02:24:59;;;;;;;9.90;5.25;;;;;;;19.72;52.32;99532.82;1721442;81;21585;-65
2021/06/06 02:27:40;;;;;;;7.87;5.12;;;;;;;19.72;52.39;99528.27;1732287;81;21013;-65
2021/06/06 02:30:42;;;;;;;12.98;5.92;;;;;;;19.73;52.45;99533.94;1732035;81;21046;-65
2021/06/06 02:33:31;;;;;;;8.10;6.70;;;;;;;19.73;52.58;99539.33;1732109;81;21025;-65
2021/06/06 02:36:12;;;;;;;11.10;7.58;;;;;;;19.71;52.74;99533.33;1731914;82;21607;-65
2021/06/06 02:38:53;;;;;;;8.50;7.03;;;;;;;19.70;52.90;99536.25;1731948;81;21137;-65
2021/06/06 02:41:34;;;;;;;13.08;8.43;;;;;;;19.69;53.04;99530.05;1732136;81;22591;-66
2021/06/06 02:44:08;;;;;;;8.78;7.25;;;;;;;19.69;53.11;99537.31;1736607;80;21136;-67
2021/06/06 02:46:38;;;;;;;10.53;7.45;;;;;;;19.69;53.17;99540.02;1744321;81;21571;-66
2021/06/06 02:49:16;;;;;;;11.05;7.50;;;;;;;19.70;53.17;99541.13;1720679;81;21034;-65
2021/06/06 02:52:03;;;;;;;9.05;6.78;;;;;;;19.70;53.06;99541.13;1730736;82;21141;-66
2021/06/06 02:54:39;;;;;;;10.08;7.37;;;;;;;19.72;53.04;99541.75;1730175;82;22094;-67
2021/06/06 02:57:12;;;;;;;10.10;7.12;;;;;;;19.73;53.03;99543.91;1714568;82;21083;-67
2021/06/06 02:59:56;;;;;;;9.20;6.78;;;;;;;19.73;53.10;99541.22;1727201;82;21081;-67
2021/06/06 03:02:27;;;;;;;;;;;;;;;19.74;53.15;99540.98;1732249;82;21015;-67
2021/06/06 03:04:58;;;;;;;8.25;7.10;;;;;;;19.75;53.23;99535.87;1717311;82;20170;-68
2021/06/06 03:07:36;;;;;;;8.73;6.45;;;;;;;19.70;53.41;99544.33;1732169;81;21022;-66
2021/06/06 03:10:06;;;;;;;12.40;6.62;;;;;;;19.71;53.53;99540.59;1723949;81;21053;-66
2021/06/06 03:12:36;;;;;;;11.48;7.58;;;;;;;19.74;53.58;99541.48;1737678;80;21061;-66
2021/06/06 03:15:46;;;;;;;11.38;7.80;;;;;;;19.80;53.66;99542.74;1792747;78;22517;-66
2021/06/06 03:18:14;;;;;;;8.65;7.37;;;;;;;19.78;53.63;99549.40;1790402;78;20994;-66
2021/06/06 03:20:45;;;;;;;11.85;7.45;;;;;;;19.80;53.58;99549.48;1790070;79;21137;-66
2021/06/06 03:23:17;;;;;;;10.40;7.17;;;;;;;19.81;53.58;99553.80;1746550;79;26655;-66
2021/06/06 03:26:01;;;;;;;9.48;7.72;;;;;;;19.82;53.51;99554.11;1768509;79;20985;-66
2021/06/06 03:28:32;;;;;;;10.10;6.75;;;;;;;19.83;53.51;99559.78;1786570;79;21033;-66
2021/06/06 03:31:07;;;;;;;12.53;7.67;;;;;;;19.83;53.38;99557.08;1768060;79;21000;-65
2021/06/06 03:33:56;;;;;;;10.40;7.17;;;;;;;19.84;53.35;99555.23;1752707;79;21903;-64
2021/06/06 03:36:35;;;;;;;10.10;7.10;;;;;;;19.84;53.29;99549.31;1778774;79;20993;-64
2021/06/06 03:39:09;;;;;;;9.95;7.20;;;;;;;19.83;53.23;99550.34;1768220;79;21033;-63
2021/06/06 03:41:36;;;;;;;12.47;7.08;;;;;;;19.83;53.19;99557.63;1760985;79;21047;-65
2021/06/06 03:44:05;;;;;;;10.03;7.30;;;;;;;19.85;53.13;99555.51;1780958;79;21055;-64
2021/06/06 03:46:32;;;;;;;12.47;7.25;;;;;;;19.85;53.16;99542.03;1793275;79;21072;-65
2021/06/06 03:49:01;;;;;;;9.50;7.65;;;;;;;19.88;53.27;99542.11;1773724;79;21056;-65
2021/06/06 03:51:28;;;;;;;15.13;12.55;;;;;;;19.89;53.43;99534.30;1766988;79;21017;-65
2021/06/06 03:53:55;;;;;;;13.25;8.73;;;;;;;19.89;53.52;99522.98;1792187;79;21611;-66
2021/06/06 03:56:22;;;;;;;8.58;7.72;;;;;;;19.90;53.64;99523.83;1786589;79;21005;-64
2021/06/06 03:58:50;;;;;;;8.50;7.12;;;;;;;19.91;53.66;99528.96;1768148;79;21929;-66
2021/06/06 04:01:19;;;;;;;10.95;6.22;;;;;;;19.91;53.86;99529.50;1788570;79;21014;-66
2021/06/06 04:03:47;;;;;;;7.83;6.03;;;;;;;19.92;54.04;99529.80;1769497;79;20966;-65
2021/06/06 04:06:13;;;;;;;10.50;6.62;;;;;;;19.92;54.17;99527.11;1789402;79;21040;-65
2021/06/06 04:08:41;;;;;;;9.15;6.35;;;;;;;19.94;54.17;99529.04;1779466;79;21061;-64
2021/06/06 04:11:10;;;;;;;9.33;6.08;;;;;;;19.96;54.09;99526.92;1794015;79;21099;-66
2021/06/06 04:13:39;;;;;;;8.05;5.65;;;;;;;19.99;53.72;99531.83;1769548;79;21057;-65
2021/06/06 04:16:06;;;;;;;9.40;5.42;;;;;;;20.02;53.38;99532.72;1787741;79;21551;-66
2021/06/06 04:18:35;;;;;;;10.93;6.03;;;;;;;20.04;53.33;99536.81;1798946;79;20981;-64
2021/06/06 04:21:12;;;;;;;9.90;6.75;;;;;;;20.07;53.23;99534.20;1797904;79;21056;-66
2021/06/06 04:23:39;;;;;;;8.93;6.08;;;;;;;20.11;53.35;99529.13;1779925;79;21119;-65
2021/06/06 04:26:08;;;;;;;10.32;7.10;;;;;;;20.14;53.38;99538.10;1797996;79;21013;-66
2021/06/06 04:28:37;;;;;;;8.00;6.35;;;;;;;20.16;53.49;99534.11;1772628;79;21049;-66
2021/06/06 04:31:05;;;;;;;10.68;6.05;;;;;;;20.17;53.59;99531.72;1780243;79;21544;-65
2021/06/06 04:33:32;;;;;;;9.95;5.92;;;;;;;20.20;53.52;99538.50;1794222;79;20994;-65
2021/06/06 04:36:00;;;;;;;7.28;6.00;;;;;;;20.21;53.59;99550.41;1792551;79;21976;-66
2021/06/06 04:38:28;;;;;;;8.70;5.78;;;;;;;20.25;53.80;99548.60;1793523;79;21010;-66
2021/06/06 04:41:01;;;;;;;8.50;5.47;;;;;;;20.26;54.09;99544.83;1774362;79;21096;-66
2021/06/06 04:43:28;;;;;;;9.40;5.65;;;;;;;20.28;54.53;99546.77;1796249;79;21049;-65
2021/06/06 04:45:55;;;;;;;7.35;5.72;;;;;;;20.30;55.03;99550.04;1786637;79;21038;-66
2021/06/06 04:48:35;;;;;;;6.90;5.53;;;;;;;20.32;55.39;99552.81;1780949;79;21076;-64
2021/06/06 04:51:09;;;;;;;11.15;6.25;;;;;;;20.34;56.02;99548.51;1795144;79;21064;-66
2021/06/06 04:53:39;;;;;;;12.53;6.15;;;;;;;20.34;56.21;99550.70;1778502;79;20981;-67
2021/06/06 04:56:10;;;;;;;9.30;5.92;;;;;;;20.36;56.41;99547.77;1791113;78;21002;-67
2021/06/06 04:58:38;;;;;;;8.08;5.95;;;;;;;20.37;56.54;99544.81;1797463;79;21500;-66
2021/06/06 05:01:07;;;;;;;6.03;5.15;;;;;;;20.39;56.52;99551.33;1779439;79;21038;-66
2021/06/06 05:03:34;;;;;;;7.30;5.75;;;;;;;20.39;56.50;99541.88;1766142;79;21035;-68
2021/06/06 05:06:00;;;;;;;8.13;5.40;;;;;;;20.41;56.31;99541.92;1787426;79;21512;-65
2021/06/06 05:08:28;;;;;;;8.13;5.05;;;;;;;20.45;56.20;99541.47;1788511;79;21076;-65
2021/06/06 05:10:55;;;;;;;6.17;5.35;;;;;;;20.47;56.11;99543.39;1794061;79;22121;-65
2021/06/06 05:13:23;;;;;;;7.90;5.22;;;;;;;20.48;56.00;99536.42;1770463;79;21098;-66
2021/06/06 05:15:51;;;;;;;7.47;4.83;;;;;;;20.50;55.89;99539.70;1787559;80;22179;-65
2021/06/06 05:18:20;;;;;;;9.65;5.35;;;;;;;20.51;55.94;99538.63;1754523;80;20965;-65
2021/06/06 05:20:49;;;;;;;6.35;4.75;;;;;;;20.54;55.89;99543.55;1780158;80;21037;-66
2021/06/06 05:23:19;;;;;;;7.28;4.72;;;;;;;20.56;56.00;99552.23;1794686;80;21069;-65
2021/06/06 05:25:47;;;;;;;7.75;4.12;;;;;;;20.57;56.21;99548.99;1791099;80;21137;-67
2021/06/06 05:28:17;;;;;;;6.70;4.40;;;;;;;20.58;56.22;99556.86;1777538;80;21075;-67
2021/06/06 05:30:44;;;;;;;7.87;4.03;;;;;;;20.60;56.23;99554.77;1759623;80;20994;-67
2021/06/06 05:33:11;;;;;;;4.75;4.28;;;;;;;20.64;56.38;99557.00;1774099;80;21298;-66
2021/06/06 05:35:38;;;;;;;6.17;4.03;;;;;;;20.66;56.53;99551.64;1750237;80;21084;-64
2021/06/06 05:38:07;;;;;;;7.83;4.00;;;;;;;20.70;57.19;99547.41;1789415;80;21853;-66
2021/06/06 05:40:36;;;;;;;5.67;3.80;;;;;;;20.74;57.43;99551.80;1778406;80;21084;-67
2021/06/06 05:43:04;;;;;;;5.58;4.67;;;;;;;20.77;57.16;99552.14;1778503;79;21017;-63
2021/06/06 05:45:33;;;;;;;5.25;4.25;;;;;;;20.80;56.99;99549.48;1779499;80;21108;-64
2021/06/06 05:48:02;;;;;;;6.75;3.98;;;;;;;20.87;57.26;99552.06;1780456;79;21017;-64
2021/06/06 05:50:31;;;;;;;5.85;3.80;;;;;;;20.96;57.00;99549.28;1780130;79;21158;-63
2021/06/06 05:53:12;;;;;;;4.17;3.47;;;;;;;21.09;56.97;99549.50;1758489;80;21058;-63
2021/06/06 05:55:38;;;;;;;6.83;3.70;;;;;;;21.21;56.89;99544.88;1771714;78;21574;-64
2021/06/06 05:58:05;;;;;;;6.20;3.67;;;;;;;21.31;56.68;99543.70;1785796;80;21580;-66
2021/06/06 06:00:35;;;;;;;4.72;3.60;;;;;;;21.43;56.59;99541.47;1751734;81;21036;-64
2021/06/06 06:03:03;;;;;;;8.13;4.10;;;;;;;21.56;56.46;99545.23;1770544;80;21139;-64
2021/06/06 06:05:29;;;;;;;12.00;4.78;;;;;;;21.67;56.29;99543.50;1768360;80;21081;-63
2021/06/06 06:07:56;;;;;;;6.42;4.35;;;;;;;21.77;55.90;99542.33;1767958;80;21019;-64
2021/06/06 06:10:28;;;;;;;6.45;3.65;;;;;;;21.87;55.71;99543.83;1778275;80;21065;-64
2021/06/06 06:12:55;;;;;;;6.42;4.67;;;;;;;21.97;55.31;99543.16;1793938;80;21037;-65
2021/06/06 06:15:23;;;;;;;5.70;3.80;;;;;;;22.08;55.17;99541.41;1786752;79;21113;-63
2021/06/06 06:17:49;;;;;;;5.40;3.83;;;;;;;22.15;54.94;99542.87;1790929;80;21095;-63
2021/06/06 06:20:19;;;;;;;6.47;3.45;;;;;;;22.25;54.68;99542.77;1766970;78;21026;-65
2021/06/06 06:22:45;;;;;;;4.12;3.12;;;;;;;22.34;54.60;99546.68;1784304;79;21087;-65
2021/06/06 06:25:13;;;;;;;3.92;3.52;;;;;;;22.43;54.31;99545.19;1785808;79;21084;-64
2021/06/06 06:27:39;;;;;;;5.12;3.70;;;;;;;22.50;53.96;99539.57;1781927;79;21134;-64
2021/06/06 06:30:16;;;;;;;4.65;3.37;;;;;;;22.56;53.73;99543.97;1803797;78;21061;-64
2021/06/06 06:32:43;;;;;;;6.62;4.12;;;;;;;22.63;53.29;99533.78;1789051;78;21049;-64
2021/06/06 06:35:09;;;;;;;4.97;3.80;;;;;;;22.69;53.22;99532.77;1791543;78;21013;-64
2021/06/06 06:37:36;;;;;;;9.93;4.30;;;;;;;22.73;53.04;99535.25;1804439;78;21036;-63
2021/06/06 06:40:06;;;;;;;6.35;3.70;;;;;;;22.82;52.93;99538.34;1821279;78;21914;-62
2021/06/06 06:42:33;;;;;;;3.67;3.33;;;;;;;22.88;52.87;99543.28;1790817;78;21003;-65
2021/06/06 06:45:00;;;;;;;7.47;3.90;;;;;;;22.92;52.94;99538.44;1807165;78;21005;-64
2021/06/06 06:47:30;;;;;;;5.85;3.67;;;;;;;22.97;52.81;99535.80;1793627;78;21090;-64
2021/06/06 06:49:57;;;;;;;6.85;3.65;;;;;;;23.02;52.76;99534.20;1793333;78;21025;-64
2021/06/06 06:52:25;;;;;;;7.75;3.67;;;;;;;23.06;52.94;99533.47;1786549;79;21501;-65
2021/06/06 06:54:52;;;;;;;8.28;4.15;;;;;;;23.10;52.94;99529.71;1799181;79;21039;-64
2021/06/06 06:57:19;;;;;;;4.60;3.20;;;;;;;23.12;53.06;99534.33;1769032;79;21508;-64
2021/06/06 06:59:46;;;;;;;4.87;3.12;;;;;;;23.14;53.14;99528.96;1786499;79;21564;-65
2021/06/06 07:02:13;;;;;;;7.37;4.15;;;;;;;23.18;53.23;99532.50;1769892;79;21080;-65
2021/06/06 07:04:39;;;;;;;6.40;3.40;;;;;;;23.19;53.40;99530.89;1772895;79;21122;-63
2021/06/06 07:07:06;;;;;;;6.90;3.55;;;;;;;23.21;53.38;99528.74;1769665;79;21072;-65
2021/06/06 07:09:32;;;;;;;6.70;3.52;;;;;;;23.23;53.43;99526.59;1804177;78;21037;-65
2021/06/06 07:11:58;;;;;;;4.78;3.20;;;;;;;23.25;53.30;99520.37;1806381;78;21490;-64
2021/06/06 07:14:26;;;;;;;7.22;3.47;;;;;;;23.26;52.51;99519.86;1778733;78;21001;-64
2021/06/06 07:16:52;;;;;;;7.12;4.30;;;;;;;23.28;52.33;99523.13;1759643;80;21100;-64
2021/06/06 07:19:20;;;;;;;5.05;3.33;;;;;;;23.29;52.47;99522.84;1801966;79;21050;-65
2021/06/06 07:21:49;;;;;;;5.20;3.62;;;;;;;23.32;52.76;99526.95;1783937;79;21033;-66
2021/06/06 07:24:15;;;;;;;5.33;3.55;;;;;;;23.34;52.63;99524.80;1789734;79;21076;-64
2021/06/06 07:26:44;;;;;;;8.18;3.52;;;;;;;23.35;52.66;99525.06;1808187;79;21541;-64
2021/06/06 07:29:13;;;;;;;5.05;3.45;;;;;;;23.37;52.63;99522.92;1776612;78;21783;-64
2021/06/06 07:31:41;;;;;;;3.22;2.92;;;;;;;23.39;52.77;99524.83;1779782;79;21025;-64
2021/06/06 07:34:07;;;;;;;5.08;3.25;;;;;;;23.41;52.87;99524.58;1788787;80;21516;-64
2021/06/06 07:36:34;;;;;;;4.72;3.17;;;;;;;23.44;52.88;99529.50;1788857;80;21071;-64
2021/06/06 07:39:01;;;;;;;5.67;3.27;;;;;;;23.47;53.07;99539.29;1774735;79;21101;-63
2021/06/06 07:41:27;;;;;;;5.42;3.33;;;;;;;23.49;53.06;99537.14;1789306;78;21779;-63
2021/06/06 07:43:57;;;;;;;5.22;3.50;;;;;;;23.50;53.19;99536.59;1800658;78;21077;-63
2021/06/06 07:46:24;;;;;;;5.62;3.87;;;;;;;23.54;52.91;99528.22;1818420;78;21021;-64
2021/06/06 07:48:52;;;;;;;5.30;3.25;;;;;;;23.57;52.60;99530.97;1820934;78;21084;-63
2021/06/06 07:51:22;;;;;;;3.45;3.10;;;;;;;23.59;52.08;99532.34;1816961;78;21493;-63
2021/06/06 07:53:50;;;;;;;4.37;3.10;;;;;;;23.61;51.94;99534.80;1771029;79;21564;-64
2021/06/06 07:56:17;;;;;;;4.00;2.80;;;;;;;23.63;51.81;99529.92;1791515;79;21011;-64
2021/06/06 07:58:45;;;;;;;6.37;3.45;;;;;;;23.65;51.74;99529.13;1797559;79;21535;-64
2021/06/06 08:01:12;;;;;;;5.50;3.10;;;;;;;23.67;51.49;99535.11;1792784;79;21045;-63
2021/06/06 08:03:38;;;;;;;4.12;2.90;;;;;;;23.69;51.28;99530.23;1783482;79;21481;-63
2021/06/06 08:06:07;;;;;;;7.30;2.90;;;;;;;23.71;51.19;99534.31;1767180;79;21264;-63
2021/06/06 08:08:34;;;;;;;5.72;3.22;;;;;;;23.73;51.06;99536.77;1768206;79;21032;-64
2021/06/06 08:11:04;;;;;;;4.17;2.92;;;;;;;23.75;50.98;99538.69;1767725;79;21132;-64
2021/06/06 08:13:32;;;;;;;4.92;2.98;;;;;;;23.77;51.16;99535.17;1768613;79;21064;-63
2021/06/06 08:15:59;;;;;;;3.50;2.92;;;;;;;23.79;51.04;99535.76;1769693;79;21052;-65
2021/06/06 08:18:34;;;;;;;3.33;2.85;;;;;;;23.81;50.96;99536.86;1787974;79;21077;-64
2021/06/06 08:21:13;;;;;;;5.42;2.75;;;;;;;23.83;50.88;99545.00;1781340;79;21029;-64
2021/06/06 08:23:40;;;;;;;3.12;2.83;;;;;;;23.84;50.59;99539.88;1782539;79;21052;-66
2021/06/06 08:26:06;;;;;;;5.00;3.15;;;;;;;23.84;50.71;99543.94;1764373;80;21020;-65
2021/06/06 08:28:33;;;;;;;6.47;2.95;;;;;;;23.84;50.66;99541.23;1770566;79;21582;-65
2021/06/06 08:31:05;;;;;;;5.37;3.12;;;;;;;23.85;50.52;99535.26;1770428;79;21152;-64
2021/06/06 08:33:31;;;;;;;4.33;3.47;;;;;;;23.85;50.70;99529.83;1770515;79;21020;-64
2021/06/06 08:36:02;;;;;;;4.80;2.70;;;;;;;23.84;50.49;99527.66;1770494;79;21067;-63
2021/06/06 08:38:29;;;;;;;5.22;3.02;;;;;;;23.86;50.57;99533.65;1792465;79;21532;-64
2021/06/06 08:41:24;;;;;;;8.05;3.40;;;;;;;23.87;50.50;99533.10;1770659;79;21536;-66
2021/06/06 08:44:04;;;;;;;4.17;2.87;;;;;;;23.87;50.43;99535.81;1771980;79;21102;-65
2021/06/06 08:46:34;;;;;;;5.40;3.02;;;;;;;23.86;50.49;99536.36;1785059;79;21517;-64
2021/06/06 08:49:03;;;;;;;4.03;2.85;;;;;;;23.87;50.38;99537.17;1788707;79;21476;-63
2021/06/06 08:51:41;;;;;;;4.90;2.83;;;;;;;23.87;50.37;99540.69;1784854;79;21056;-65
2021/06/06 08:54:37;;;;;;;6.22;2.87;;;;;;;23.86;50.34;99536.91;1775874;79;21133;-65
2021/06/06 08:57:11;;;;;;;7.42;3.00;;;;;;;23.86;49.96;99542.33;1792272;79;21118;-64
2021/06/06 08:59:46;;;;;;;5.83;2.50;;;;;;;23.85;49.50;99542.04;1779269;79;21057;-65
2021/06/06 09:02:23;;;;;;;8.38;2.87;;;;;;;23.82;49.30;99536.61;1780757;79;21072;-65
2021/06/06 09:04:52;;;;;;;5.40;2.98;;;;;;;23.82;49.29;99535.80;1778948;79;21127;-65
2021/06/06 09:07:36;;;;;;;9.73;2.90;;;;;;;23.80;49.40;99527.91;1801006;79;21487;-65
2021/06/06 09:10:12;;;;;;;;;;;;;;;23.79;49.31;99522.20;1782120;79;21133;-65
2021/06/06 09:12:39;;;;;;;5.12;2.60;;;;;;;23.79;49.37;99525.45;1783269;79;20169;-64
2021/06/06 09:15:09;;;;;;;2.92;2.55;;;;;;;23.69;49.65;99521.55;1792907;79;21049;-64
2021/06/06 09:17:50;;;;;;;4.53;2.80;;;;;;;23.70;49.62;99520.49;1800343;79;21040;-64
2021/06/06 09:20:28;;;;;;;2.62;2.40;;;;;;;23.72;49.73;99518.34;1793346;79;21156;-66
2021/06/06 09:23:23;;;;;;;5.08;2.85;;;;;;;23.74;49.79;99514.82;1797895;79;21092;-64
2021/06/06 09:26:21;;;;;;;8.43;6.42;;;;;;;23.78;49.69;99516.99;1792381;79;21516;-63
2021/06/06 09:29:12;;;;;;;6.10;3.17;;;;;;;23.80;49.63;99507.57;1784385;79;21025;-64
2021/06/06 09:31:39;;;;;;;4.95;3.08;;;;;;;23.82;49.66;99511.39;1780902;79;21096;-64
2021/06/06 09:34:07;;;;;;;5.50;3.47;;;;;;;23.84;49.65;99512.75;1795765;79;21674;-63
2021/06/06 09:36:43;;;;;;;4.85;3.10;;;;;;;23.88;49.59;99514.41;1784647;79;21127;-64
2021/06/06 09:39:20;;;;;;;4.40;3.80;;;;;;;23.92;49.65;99512.80;1810006;78;20978;-64
2021/06/06 09:41:56;;;;;;;6.90;3.72;;;;;;;23.96;49.57;99512.55;1807503;78;21017;-64
2021/06/06 09:44:30;;;;;;;4.65;3.25;;;;;;;23.98;49.52;99500.89;1804335;78;21028;-63
2021/06/06 09:47:11;;;;;;;3.37;3.08;;;;;;;24.04;49.60;99506.63;1787882;78;21024;-63
2021/06/06 09:49:44;;;;;;;5.60;3.22;;;;;;;24.10;49.42;99507.47;1779098;80;21798;-63
2021/06/06 09:52:24;;;;;;;6.50;3.40;;;;;;;24.13;49.00;99501.53;1806898;78;21041;-63
2021/06/06 09:54:54;;;;;;;4.92;3.50;;;;;;;24.16;49.02;99500.98;1813984;78;21116;-64
2021/06/06 09:57:35;;;;;;;4.20;3.22;;;;;;;24.20;49.22;99502.63;1810660;78;21056;-63
2021/06/06 10:00:27;;;;;;;7.95;4.08;;;;;;;24.22;49.45;99502.66;1815542;78;21709;-65
2021/06/06 10:02:59;;;;;;;6.70;3.17;;;;;;;24.25;49.07;99502.67;1802861;78;21879;-65
2021/06/06 10:05:29;;;;;;;;;;;;;;;24.20;48.97;99503.44;1817192;78;21031;-63
2021/06/06 10:08:07;;;;;;;5.25;3.37;;;;;;;24.21;49.13;99504.28;1807898;79;20177;-64
2021/06/06 10:10:42;;;;;;;5.78;3.50;;;;;;;24.14;49.34;99501.27;1782346;79;21009;-64
2021/06/06 10:13:12;;;;;;;5.62;3.40;;;;;;;24.18;49.35;99496.66;1784549;79;21584;-63
2021/06/06 10:15:50;;;;;;;4.17;2.92;;;;;;;24.21;49.28;99494.78;1780777;79;21045;-64
2021/06/06 10:18:26;;;;;;;4.90;3.25;;;;;;;24.25;49.16;99499.95;1780864;79;21052;-64
2021/06/06 10:21:14;;;;;;;4.53;3.87;;;;;;;24.27;49.18;99495.88;1789272;79;21047;-64
2021/06/06 10:23:47;;;;;;;5.65;3.47;;;;;;;24.32;49.40;99492.40;1785501;79;21513;-65
2021/06/06 10:26:22;;;;;;;;;;;;;;;24.37;49.19;99489.69;1790556;79;21521;-63
2021/06/06 10:28:52;;;;;;;4.80;3.02;;;;;;;24.44;48.80;99490.27;1791279;79;21120;-64
2021/06/06 10:31:30;;;;;;;4.47;3.45;;;;;;;24.45;48.98;99483.73;1789755;79;21193;-63
2021/06/06 10:34:26;;;;;;;4.05;3.58;;;;;;;24.51;48.67;99476.45;1784664;79;21073;-64
2021/06/06 10:36:53;;;;;;;4.92;3.12;;;;;;;24.60;47.95;99482.20;1780178;79;21093;-65
2021/06/06 10:39:23;;;;;;;4.80;3.30;;;;;;;24.61;46.90;99477.03;1793415;79;21467;-64
2021/06/06 10:42:08;;;;;;;7.80;3.33;;;;;;;24.60;46.38;99473.50;1784945;79;21140;-64
2021/06/06 10:45:10;;;;;;;6.33;3.60;;;;;;;24.61;46.60;99471.08;1786529;79;21068;-68
2021/06/06 10:47:56;;;;;;;5.50;3.40;;;;;;;24.64;46.41;99464.28;1788383;79;21528;-67
2021/06/06 10:50:42;;;;;;;4.72;3.40;;;;;;;24.65;46.64;99459.95;1786561;79;21199;-63
2021/06/06 10:53:27;;;;;;;4.28;2.92;;;;;;;24.64;46.84;99458.30;1790155;79;21241;-65
2021/06/06 10:56:16;;;;;;;7.28;3.25;;;;;;;24.66;46.72;99463.47;1782337;79;21279;-65
2021/06/06 10:59:06;;;;;;;5.15;3.45;;;;;;;24.67;46.61;99459.69;1759383;79;21068;-66
2021/06/06 11:01:47;;;;;;;7.10;3.80;;;;;;;24.68;46.98;99459.39;1781577;79;21603;-66
2021/06/06 11:04:32;;;;;;;45.50;23.12;;;;;;;24.72;47.10;99451.53;1803909;78;21053;-65
2021/06/06 11:07:11;;;;;;;22.20;11.65;;;;;;;24.78;47.19;99451.81;1785086;78;21073;-66
2021/06/06 11:09:40;;;;;;;19.37;10.70;;;;;;;24.87;47.53;99449.39;1774876;80;21219;-64
2021/06/06 11:12:12;;;;;;;13.98;8.00;;;;;;;24.98;47.15;99442.89;1755705;80;21018;-66
2021/06/06 11:14:49;;;;;;;10.45;5.67;;;;;;;25.10;46.57;99433.91;1759587;80;21053;-65
2021/06/06 11:17:38;;;;;;;10.30;5.40;;;;;;;25.24;45.14;99442.37;1800051;78;21034;-65
2021/06/06 11:20:31;;;;;;;7.83;5.22;;;;;;;25.35;43.55;99429.59;1808038;78;21009;-66
2021/06/06 11:22:58;;;;;;;12.88;5.85;;;;;;;25.46;43.30;99424.97;1795160;78;21887;-65
2021/06/06 11:25:44;;;;;;;6.55;3.70;;;;;;;25.61;43.40;99419.51;1803433;78;21529;-65
2021/06/06 11:28:37;;;;;;;7.75;4.05;;;;;;;25.75;43.18;99415.66;1815191;78;21017;-67
2021/06/06 11:31:07;;;;;;;6.95;4.12;;;;;;;25.89;44.61;99414.52;1801988;78;21533;-66
2021/06/06 11:33:46;;;;;;;5.08;3.37;;;;;;;26.03;43.99;99421.02;1799811;78;21096;-66
2021/06/06 11:36:13;;;;;;;4.25;3.17;;;;;;;26.15;41.72;99413.09;1787347;78;21758;-65
2021/06/06 11:38:47;;;;;;;4.65;2.90;;;;;;;26.26;41.11;99407.86;1805887;78;21038;-67
2021/06/06 11:41:23;;;;;;;6.15;3.35;;;;;;;26.37;41.85;99405.92;1797266;78;21092;-65
2021/06/06 11:44:12;;;;;;;5.22;3.35;;;;;;;26.48;41.83;99411.02;1818039;78;21002;-67
2021/06/06 11:46:51;;;;;;;5.92;3.27;;;;;;;26.60;42.25;99405.81;1815004;78;21426;-66
2021/06/06 11:49:46;;;;;;;6.58;3.50;;;;;;;26.72;43.22;99407.63;1819717;78;21119;-65
2021/06/06 11:53:05;;;;;;;3.92;3.30;;;;;;;26.85;42.57;99404.26;1815386;78;20993;-65
2021/06/06 11:55:38;;;;;;;4.75;3.27;;;;;;;26.97;42.28;99396.27;1731246;81;21580;-65
2021/06/06 11:58:42;;;;;;;6.22;3.33;;;;;;;27.06;41.98;99394.02;1785652;80;29546;-66